Řízení letového provozu České republiky
Letiste: LKNA Aktualizace: 20.07.2018 15:01:06  UTC
 METAR LKNA 20.07. 15:00 ...
METAR LKNA 201500Z 28007KT 240V320 CAVOK 28/09 Q1013 NOSIG RMK BLU BLU=
 TAF LKNA 20.07. 11:00 ...
TAF LKNA 201100Z 2012/2112 01006KT CAVOK      BECMG 2014/2016 12006KT=